Time;durP1;ratioP1;P1;durP2;ratioP2;P2;SDS_P1;SDS_P2;PMS_P1;PMS_P2;Temp;Humidity;BMP_temperature;BMP_pressure;BME280_temperature;BME280_humidity;BME280_pressure;Samples;Min_cycle;Max_cycle;Signal;HPM_P1;HPM_P2
2022/12/17 13:07:34;;;;;;;;;;;20.70;59.70;;;;;;1507465;77;758;-75
2022/12/17 13:09:37;;;;;;;;;;;20.70;59.70;;;;;;1517041;77;1580;-75
2022/12/17 13:11:39;;;;;;;;;;;20.70;59.80;;;;;;1517123;77;774;-75
2022/12/17 13:13:54;;;;;;;;;;;20.70;59.70;;;;;;1518305;77;1941;-75
2022/12/17 13:15:53;;;;;;;;;;;20.70;59.80;;;;;;1535420;77;1525;-75
2022/12/17 13:17:55;;;;;;;;;;;20.70;59.70;;;;;;1519050;77;708;-75
2022/12/17 13:19:59;;;;;;;;;;;20.60;59.60;;;;;;1526030;77;824;-75
2022/12/17 13:22:17;;;;;;;;;;;20.70;59.70;;;;;;1527163;77;752;-75
2022/12/17 13:24:24;;;;;;;;;;;20.70;59.70;;;;;;1526138;77;1448;-75
2022/12/17 13:26:42;;;;;;;;;;;20.60;59.60;;;;;;1518755;77;908;-75
2022/12/17 13:28:46;;;;;;;;;;;20.60;59.60;;;;;;1517958;77;707;-75
2022/12/17 13:30:47;;;;;;;;;;;20.60;59.60;;;;;;1524435;77;1912;-75
2022/12/17 13:33:03;;;;;;;;;;;20.60;59.60;;;;;;1513607;77;1937;-75
2022/12/17 13:35:19;;;;;;;;;;;20.60;59.60;;;;;;1516398;77;1266;-75
2022/12/17 13:37:39;;;;;;;;;;;20.60;59.60;;;;;;1527070;77;920;-75
2022/12/17 13:39:48;;;;;;;;;;;20.60;59.60;;;;;;1516263;77;719;-75
2022/12/17 13:41:52;;;;;;;;;;;20.60;59.60;;;;;;1515427;77;1616;-75
2022/12/17 13:43:59;;;;;;;;;;;20.60;59.60;;;;;;1528150;77;1138;-75
2022/12/17 13:45:58;;;;;;;;;;;20.60;59.60;;;;;;1514385;77;977;-75
2022/12/17 13:48:00;;;;;;;;;;;20.60;59.60;;;;;;1510992;77;727;-75
2022/12/17 13:50:03;;;;;;;;;;;20.60;59.50;;;;;;1520240;77;775;-75
2022/12/17 13:52:06;;;;;;;;;;;20.60;59.60;;;;;;1521620;77;1616;-76
2022/12/17 13:54:09;;;;;;;;;;;20.60;59.50;;;;;;1516472;77;1918;-76
2022/12/17 13:56:12;;;;;;;;;;;20.60;59.60;;;;;;1518966;77;1702;-75
2022/12/17 13:58:21;;;;;;;;;;;20.60;59.50;;;;;;1510379;77;892;-76
2022/12/17 14:00:24;;;;;;;;;;;20.60;59.60;;;;;;1510047;77;1124;-76
2022/12/17 14:02:30;;;;;;;;;;;20.60;59.50;;;;;;1518091;77;739;-76
2022/12/17 14:04:32;;;;;;;;;;;20.60;59.50;;;;;;1513487;77;1103;-75
2022/12/17 14:06:34;;;;;;;;;;;20.50;59.40;;;;;;1509782;77;1339;-75
2022/12/17 14:08:36;;;;;;;;;;;20.60;59.30;;;;;;1510058;77;771;-75
2022/12/17 14:10:38;;;;;;;;;;;20.60;59.30;;;;;;1512665;77;729;-75
2022/12/17 14:12:40;;;;;;;;;;;20.60;59.30;;;;;;1491975;78;1936;-75
2022/12/17 14:14:47;;;;;;;;;;;20.50;59.30;;;;;;1509721;77;805;-75
2022/12/17 14:16:49;;;;;;;;;;;20.60;59.40;;;;;;1505192;77;722;-75
2022/12/17 14:18:51;;;;;;;;;;;20.60;59.40;;;;;;1506626;77;733;-75
2022/12/17 14:20:53;;;;;;;;;;;20.50;59.40;;;;;;1511457;77;1574;-75
2022/12/17 14:22:56;;;;;;;;;;;20.60;59.40;;;;;;1506705;77;1247;-75
2022/12/17 14:24:58;;;;;;;;;;;20.50;59.50;;;;;;1513485;77;721;-75
2022/12/17 14:27:00;;;;;;;;;;;20.50;59.50;;;;;;1509858;77;877;-75
2022/12/17 14:29:02;;;;;;;;;;;20.60;59.50;;;;;;1514260;77;815;-75
2022/12/17 14:31:04;;;;;;;;;;;20.50;59.50;;;;;;1477031;78;1201;-75
2022/12/17 14:33:26;;;;;;;;;;;20.50;59.50;;;;;;1502661;77;1954;-76
2022/12/17 14:35:29;;;;;;;;;;;20.50;59.60;;;;;;1518189;77;1563;-75
2022/12/17 14:37:31;;;;;;;;;;;20.50;59.60;;;;;;1509387;77;677;-75
2022/12/17 14:39:33;;;;;;;;;;;20.40;59.60;;;;;;1520393;77;718;-75
2022/12/17 14:43:57;;;;;;;;;;;20.40;59.60;;;;;;1511627;77;1662;-75
2022/12/17 14:48:59;;;;;;;;;;;20.50;59.70;;;;;;1510306;77;1533;-75
2022/12/17 14:50:24;;;;;;;;;;;20.40;59.70;;;;;;1513760;77;1395;-76
2022/12/17 14:52:27;;;;;;;;;;;20.50;59.70;;;;;;1517604;77;716;-75
2022/12/17 14:54:30;;;;;;;;;;;20.40;59.70;;;;;;1500993;77;1959;-75
2022/12/17 14:56:32;;;;;;;;;;;20.40;59.70;;;;;;1513565;77;746;-75
2022/12/17 14:58:35;;;;;;;;;;;20.40;59.70;;;;;;1509116;76;696;-75
2022/12/17 15:00:41;;;;;;;;;;;20.40;59.70;;;;;;1506848;77;1001;-78
2022/12/17 15:02:43;;;;;;;;;;;20.40;59.70;;;;;;1510253;77;1535;-78
2022/12/17 15:04:45;;;;;;;;;;;20.40;59.80;;;;;;1522079;77;721;-77
2022/12/17 15:06:47;;;;;;;;;;;20.40;60.00;;;;;;1519972;77;747;-77
2022/12/17 15:08:49;;;;;;;;;;;20.40;60.00;;;;;;1517169;74;219470;-59
2022/12/17 15:10:51;;;;;;;;;;;20.40;60.10;;;;;;1526167;76;767;-60
2022/12/17 15:12:53;;;;;;;;;;;20.40;60.20;;;;;;1521712;78;787;-60
2022/12/17 15:14:55;;;;;;;;;;;20.30;60.20;;;;;;1524553;78;1930;-60
2022/12/17 15:16:58;;;;;;;;;;;20.40;60.30;;;;;;1524239;78;1476;-61
2022/12/17 15:19:00;;;;;;;;;;;20.30;60.20;;;;;;1522564;76;1206;-60
2022/12/17 15:21:02;;;;;;;;;;;20.30;60.20;;;;;;1523063;76;701;-60
2022/12/17 15:23:04;;;;;;;;;;;20.30;60.20;;;;;;1520142;76;709;-60
2022/12/17 15:25:06;;;;;;;;;;;20.40;60.10;;;;;;1526315;76;698;-60
2022/12/17 15:27:09;;;;;;;;;;;20.40;60.10;;;;;;1525625;76;676;-60
2022/12/17 15:29:12;;;;;;;;;;;20.40;60.00;;;;;;1523412;76;1154;-60
2022/12/17 15:31:14;;;;;;;;;;;20.40;60.00;;;;;;1524006;78;1421;-61
2022/12/17 15:33:15;;;;;;;;;;;20.40;59.90;;;;;;1519417;78;1944;-61
2022/12/17 15:35:17;;;;;;;;;;;20.50;59.90;;;;;;1519224;78;685;-61
2022/12/17 15:37:19;;;;;;;;;;;20.40;59.80;;;;;;1525691;78;763;-60
2022/12/17 15:39:21;;;;;;;;;;;20.40;59.80;;;;;;1517151;76;1152;-61
2022/12/17 15:43:43;;;;;;;;;;;20.40;60.00;;;;;;1522937;78;1732;-60
2022/12/17 15:45:46;;;;;;;;;;;20.30;60.00;;;;;;1525893;78;1455;-61
2022/12/17 15:47:48;;;;;;;;;;;20.40;60.10;;;;;;1495170;78;1527;-61
2022/12/17 15:49:50;;;;;;;;;;;20.30;60.20;;;;;;1526584;76;1139;-61
2022/12/17 15:51:52;;;;;;;;;;;20.30;60.30;;;;;;1520890;76;749;-61
2022/12/17 15:53:54;;;;;;;;;;;20.30;60.40;;;;;;1518048;76;1939;-60
2022/12/17 15:55:59;;;;;;;;;;;20.30;60.50;;;;;;1523374;78;782;-60
2022/12/17 15:58:01;;;;;;;;;;;20.20;60.60;;;;;;1522598;78;1464;-60
2022/12/17 16:00:06;;;;;;;;;;;20.20;60.60;;;;;;1524368;78;725;-60
2022/12/17 16:02:10;;;;;;;;;;;20.30;60.90;;;;;;1520110;76;673;-60
2022/12/17 16:04:12;;;;;;;;;;;20.20;60.90;;;;;;1525482;76;969;-61
2022/12/17 16:06:14;;;;;;;;;;;20.20;61.00;;;;;;1528012;78;813;-60
2022/12/17 16:08:15;;;;;;;;;;;20.20;61.20;;;;;;1523733;76;1121;-60
2022/12/17 16:10:17;;;;;;;;;;;20.20;61.30;;;;;;1528314;76;790;-60
2022/12/17 16:12:19;;;;;;;;;;;20.20;61.50;;;;;;1529033;76;1475;-60
2022/12/17 16:14:22;;;;;;;;;;;20.20;61.60;;;;;;1529109;76;1897;-60
2022/12/17 16:16:24;;;;;;;;;;;20.20;61.70;;;;;;1527788;76;757;-61
2022/12/17 16:18:26;;;;;;;;;;;20.20;61.80;;;;;;1525425;76;1146;-61
2022/12/17 16:20:28;;;;;;;;;;;20.20;61.80;;;;;;1527942;76;747;-61
2022/12/17 16:22:30;;;;;;;;;;;20.20;61.90;;;;;;1529032;76;588;-60
2022/12/17 16:24:32;;;;;;;;;;;20.20;61.90;;;;;;1527479;76;643;-60
2022/12/17 16:26:34;;;;;;;;;;;20.10;61.90;;;;;;1522221;76;1431;-61
2022/12/17 16:28:35;;;;;;;;;;;20.20;61.90;;;;;;1531573;75;1205;-61
2022/12/17 16:30:37;;;;;;;;;;;20.20;62.00;;;;;;1530563;76;737;-61
2022/12/17 16:32:39;;;;;;;;;;;20.20;62.00;;;;;;1527336;76;726;-61
2022/12/17 16:34:41;;;;;;;;;;;20.20;61.90;;;;;;1527017;76;1940;-60
2022/12/17 16:36:43;;;;;;;;;;;20.20;62.00;;;;;;1524853;76;744;-61
2022/12/17 16:38:45;;;;;;;;;;;20.20;62.00;;;;;;1526051;76;1143;-60
2022/12/17 16:40:47;;;;;;;;;;;20.20;62.00;;;;;;1526526;76;1537;-62
2022/12/17 16:42:49;;;;;;;;;;;20.20;61.90;;;;;;1526596;76;684;-60
2022/12/17 16:44:51;;;;;;;;;;;20.20;61.90;;;;;;1526799;76;738;-60
2022/12/17 16:46:53;;;;;;;;;;;20.20;61.90;;;;;;1523893;76;755;-60
2022/12/17 16:48:55;;;;;;;;;;;20.20;61.90;;;;;;1525201;76;1106;-61
2022/12/17 16:50:57;;;;;;;;;;;20.30;61.90;;;;;;1524007;76;754;-61
2022/12/17 16:52:59;;;;;;;;;;;20.20;61.80;;;;;;1526224;76;661;-61
2022/12/17 16:55:00;;;;;;;;;;;20.20;61.80;;;;;;1530139;76;1936;-61
2022/12/17 16:57:02;;;;;;;;;;;20.20;61.80;;;;;;1528551;76;712;-61
2022/12/17 16:59:06;;;;;;;;;;;20.20;61.90;;;;;;1534145;75;1168;-59
2022/12/17 17:01:09;;;;;;;;;;;20.20;61.90;;;;;;1522843;76;790;-60
2022/12/17 17:03:10;;;;;;;;;;;20.20;62.00;;;;;;1524881;76;602;-60
2022/12/17 17:05:12;;;;;;;;;;;20.20;62.00;;;;;;1525557;76;685;-59
2022/12/17 17:07:14;;;;;;;;;;;20.20;62.00;;;;;;1527162;76;790;-61
2022/12/17 17:09:16;;;;;;;;;;;20.20;62.00;;;;;;1528076;76;1739;-61
2022/12/17 17:11:20;;;;;;;;;;;20.20;61.80;;;;;;1526628;76;742;-61
2022/12/17 17:13:22;;;;;;;;;;;20.20;61.70;;;;;;1520604;76;828;-62
2022/12/17 17:15:24;;;;;;;;;;;20.30;61.70;;;;;;1530990;76;1940;-61
2022/12/17 17:17:26;;;;;;;;;;;20.20;61.60;;;;;;1522086;77;810;-66
2022/12/17 17:19:27;;;;;;;;;;;20.20;61.60;;;;;;1522809;76;1147;-63
2022/12/17 17:21:30;;;;;;;;;;;20.20;61.60;;;;;;1521490;76;702;-61
2022/12/17 17:23:32;;;;;;;;;;;20.20;61.70;;;;;;1521173;77;1465;-61
2022/12/17 17:25:35;;;;;;;;;;;20.20;61.70;;;;;;1522149;77;714;-60
2022/12/17 17:27:37;;;;;;;;;;;20.20;61.80;;;;;;1520807;77;743;-61
2022/12/17 17:29:39;;;;;;;;;;;20.20;61.90;;;;;;1521509;77;1161;-61
2022/12/17 17:31:41;;;;;;;;;;;20.20;61.90;;;;;;1524556;77;785;-61
2022/12/17 17:33:45;;;;;;;;;;;20.20;61.80;;;;;;1522596;77;718;-61
2022/12/17 17:35:47;;;;;;;;;;;20.20;61.80;;;;;;1519844;77;1903;-61
2022/12/17 17:37:49;;;;;;;;;;;20.20;61.80;;;;;;1520574;77;1435;-61
2022/12/17 17:39:51;;;;;;;;;;;20.20;61.70;;;;;;1520663;77;1092;-62
2022/12/17 17:41:53;;;;;;;;;;;20.20;61.70;;;;;;1521877;77;733;-61
2022/12/17 17:43:57;;;;;;;;;;;20.30;61.70;;;;;;1522011;77;725;-61
2022/12/17 17:46:09;;;;;;;;;;;20.20;61.40;;;;;;1524747;77;622;-61
2022/12/17 17:48:11;;;;;;;;;;;20.20;61.40;;;;;;1525126;75;1154;-61
2022/12/17 17:50:13;;;;;;;;;;;20.20;61.50;;;;;;1522603;76;774;-61
2022/12/17 17:52:15;;;;;;;;;;;20.20;61.50;;;;;;1509045;76;1597;-61
2022/12/17 17:54:17;;;;;;;;;;;20.20;61.40;;;;;;1522862;77;1899;-61
2022/12/17 17:56:20;;;;;;;;;;;20.20;61.40;;;;;;1524678;77;706;-61
2022/12/17 17:58:22;;;;;;;;;;;20.20;61.40;;;;;;1531075;75;1451;-61
2022/12/17 18:00:24;;;;;;;;;;;20.20;61.50;;;;;;1524809;77;640;-61
2022/12/17 18:02:26;;;;;;;;;;;20.20;61.50;;;;;;1521066;76;830;-61
2022/12/17 18:04:28;;;;;;;;;;;20.10;61.50;;;;;;1534972;76;792;-59
2022/12/17 18:06:29;;;;;;;;;;;20.20;61.50;;;;;;1528591;76;1617;-59
2022/12/17 18:08:32;;;;;;;;;;;20.10;61.50;;;;;;1522450;77;1109;-60
2022/12/17 18:10:33;;;;;;;;;;;20.20;61.50;;;;;;1526705;77;824;-59
2022/12/17 18:14:55;;;;;;;;;;;20.20;61.50;;;;;;1533201;77;1903;-61
2022/12/17 18:16:57;;;;;;;;;;;20.10;61.50;;;;;;1530605;77;697;-60
2022/12/17 18:19:00;;;;;;;;;;;20.20;61.40;;;;;;1524896;77;1495;-60
2022/12/17 18:21:03;;;;;;;;;;;20.20;61.50;;;;;;1523202;76;700;-61
2022/12/17 18:23:05;;;;;;;;;;;20.10;61.50;;;;;;1517447;77;1638;-60
2022/12/17 18:25:07;;;;;;;;;;;20.20;61.50;;;;;;1519814;77;670;-60
2022/12/17 18:27:09;;;;;;;;;;;20.10;61.50;;;;;;1531105;77;686;-60
2022/12/17 18:29:12;;;;;;;;;;;20.10;61.50;;;;;;1520998;77;1168;-60
2022/12/17 18:31:15;;;;;;;;;;;20.10;61.50;;;;;;1527458;77;725;-60
2022/12/17 18:33:17;;;;;;;;;;;20.10;61.50;;;;;;1532267;77;1513;-61
2022/12/17 18:35:19;;;;;;;;;;;20.10;61.50;;;;;;1526943;76;1935;-60
2022/12/17 18:37:20;;;;;;;;;;;20.10;61.50;;;;;;1526934;77;1092;-61
2022/12/17 18:39:23;;;;;;;;;;;20.20;61.50;;;;;;1522474;77;1140;-61
2022/12/17 18:43:45;;;;;;;;;;;20.10;61.50;;;;;;1520665;77;1612;-60
2022/12/17 18:45:47;;;;;;;;;;;20.10;61.40;;;;;;1522755;77;706;-60
2022/12/17 18:47:49;;;;;;;;;;;20.10;61.40;;;;;;1532074;77;1534;-60
2022/12/17 18:49:51;;;;;;;;;;;20.10;61.50;;;;;;1524381;76;1189;-61
2022/12/17 18:51:53;;;;;;;;;;;20.10;61.40;;;;;;1508752;76;797;-60
2022/12/17 18:53:56;;;;;;;;;;;20.10;61.50;;;;;;1522305;76;742;-59
2022/12/17 18:55:58;;;;;;;;;;;20.10;61.50;;;;;;1524423;77;1944;-59
2022/12/17 18:58:00;;;;;;;;;;;20.10;61.50;;;;;;1529095;77;593;-59
2022/12/17 19:00:02;;;;;;;;;;;20.00;61.30;;;;;;1535190;77;811;-59
2022/12/17 19:02:04;;;;;;;;;;;20.10;61.50;;;;;;1524593;76;1482;-60
2022/12/17 19:04:09;;;;;;;;;;;20.10;61.40;;;;;;1524528;77;717;-60
2022/12/17 19:06:11;;;;;;;;;;;20.00;61.30;;;;;;1522510;77;684;-61
2022/12/17 19:08:13;;;;;;;;;;;20.10;61.40;;;;;;1525525;77;1169;-62
2022/12/17 19:10:15;;;;;;;;;;;20.10;61.40;;;;;;1522875;77;790;-61
2022/12/17 19:12:17;;;;;;;;;;;20.00;61.40;;;;;;1521051;77;752;-60
2022/12/17 19:14:21;;;;;;;;;;;20.00;61.30;;;;;;1520557;77;728;-61
2022/12/17 19:16:23;;;;;;;;;;;20.00;61.30;;;;;;1528027;77;1916;-61
2022/12/17 19:18:25;;;;;;;;;;;20.00;61.40;;;;;;1527242;76;1182;-61
2022/12/17 19:20:27;;;;;;;;;;;20.00;61.30;;;;;;1520649;77;811;-61
2022/12/17 19:22:29;;;;;;;;;;;20.00;61.30;;;;;;1522942;76;756;-60
2022/12/17 19:24:31;;;;;;;;;;;20.00;61.30;;;;;;1528086;77;700;-60
2022/12/17 19:26:33;;;;;;;;;;;20.00;61.30;;;;;;1521285;77;702;-60
2022/12/17 19:28:35;;;;;;;;;;;20.00;61.30;;;;;;1521238;77;1185;-60
2022/12/17 19:30:37;;;;;;;;;;;20.00;61.30;;;;;;1520180;77;1485;-61
2022/12/17 19:32:38;;;;;;;;;;;20.00;61.30;;;;;;1535786;76;591;-61
2022/12/17 19:34:40;;;;;;;;;;;20.00;61.40;;;;;;1523770;77;1940;-61
2022/12/17 19:36:42;;;;;;;;;;;20.00;61.40;;;;;;1521314;77;739;-61
2022/12/17 19:38:44;;;;;;;;;;;20.00;61.40;;;;;;1529504;77;1160;-60
2022/12/17 19:40:50;;;;;;;;;;;20.00;61.40;;;;;;1521204;77;713;-61
2022/12/17 19:42:50;;;;;;;;;;;20.00;61.40;;;;;;1523085;77;1591;-61
2022/12/17 19:44:52;;;;;;;;;;;20.00;61.40;;;;;;1522111;77;1470;-61
2022/12/17 19:46:57;;;;;;;;;;;20.00;61.30;;;;;;1521317;77;608;-60
2022/12/17 19:48:58;;;;;;;;;;;20.00;61.40;;;;;;1529554;76;1721;-61
2022/12/17 19:51:00;;;;;;;;;;;20.00;61.30;;;;;;1521033;76;736;-60
2022/12/17 19:53:02;;;;;;;;;;;20.00;61.30;;;;;;1518641;77;556;-61
2022/12/17 19:55:04;;;;;;;;;;;20.00;61.30;;;;;;1515322;77;1941;-61
2022/12/17 19:57:06;;;;;;;;;;;20.00;61.30;;;;;;1522498;77;1451;-61
2022/12/17 19:59:08;;;;;;;;;;;20.00;61.30;;;;;;1521901;77;1156;-60
2022/12/17 20:01:11;;;;;;;;;;;20.00;61.30;;;;;;1520767;76;751;-60
2022/12/17 20:03:13;;;;;;;;;;;20.00;61.30;;;;;;1527389;76;803;-61
2022/12/17 20:05:15;;;;;;;;;;;20.00;61.30;;;;;;1522038;77;706;-60
2022/12/17 20:07:16;;;;;;;;;;;20.00;61.20;;;;;;1522275;77;770;-60
2022/12/17 20:09:18;;;;;;;;;;;20.00;61.20;;;;;;1526879;75;1149;-61
2022/12/17 20:11:32;;;;;;;;;;;20.00;61.20;;;;;;1519461;77;1546;-61
2022/12/17 20:13:34;;;;;;;;;;;20.00;61.20;;;;;;1522656;77;800;-61
2022/12/17 20:15:36;;;;;;;;;;;20.00;61.20;;;;;;1522229;77;1930;-61
2022/12/17 20:17:38;;;;;;;;;;;20.00;61.30;;;;;;1521776;76;764;-61
2022/12/17 20:19:42;;;;;;;;;;;20.00;61.20;;;;;;1529516;77;1116;-61
2022/12/17 20:21:44;;;;;;;;;;;20.00;61.20;;;;;;1521394;76;747;-61
2022/12/17 20:23:46;;;;;;;;;;;20.00;61.20;;;;;;1512521;77;772;-61
2022/12/17 20:25:48;;;;;;;;;;;20.00;61.10;;;;;;1521714;77;1450;-61
2022/12/17 20:27:50;;;;;;;;;;;20.00;61.20;;;;;;1533157;77;726;-61
2022/12/17 20:29:52;;;;;;;;;;;20.00;61.10;;;;;;1520511;77;1171;-61
2022/12/17 20:31:54;;;;;;;;;;;20.00;61.20;;;;;;1522566;76;737;-62
2022/12/17 20:33:58;;;;;;;;;;;20.00;61.20;;;;;;1533441;77;837;-61
2022/12/17 20:36:04;;;;;;;;;;;20.00;61.20;;;;;;1523855;77;1925;-61
2022/12/17 20:38:05;;;;;;;;;;;20.00;61.20;;;;;;1520412;77;1144;-61
2022/12/17 20:40:08;;;;;;;;;;;20.00;61.20;;;;;;1526823;77;1508;-61
2022/12/17 20:42:10;;;;;;;;;;;20.00;61.10;;;;;;1524151;77;703;-61
2022/12/17 20:44:13;;;;;;;;;;;20.00;61.10;;;;;;1528729;77;743;-61
2022/12/17 20:46:14;;;;;;;;;;;20.00;61.10;;;;;;1520578;76;794;-61
2022/12/17 20:48:17;;;;;;;;;;;19.90;61.00;;;;;;1527180;77;1163;-61
2022/12/17 20:50:18;;;;;;;;;;;20.00;61.10;;;;;;1522258;77;603;-61
2022/12/17 20:52:20;;;;;;;;;;;19.90;61.00;;;;;;1515101;76;752;-61
2022/12/17 20:54:22;;;;;;;;;;;20.00;61.00;;;;;;1520806;77;1466;-61
2022/12/17 20:56:25;;;;;;;;;;;19.90;61.00;;;;;;1524841;77;1947;-62
2022/12/17 20:58:27;;;;;;;;;;;19.90;61.10;;;;;;1520300;77;1180;-61
2022/12/17 21:00:29;;;;;;;;;;;20.00;61.10;;;;;;1522775;76;618;-61
2022/12/17 21:02:30;;;;;;;;;;;19.90;61.10;;;;;;1526958;76;718;-61
2022/12/17 21:04:33;;;;;;;;;;;20.00;61.00;;;;;;1527157;77;706;-61
2022/12/17 21:06:39;;;;;;;;;;;19.90;61.00;;;;;;1519979;77;762;-61
2022/12/17 21:08:41;;;;;;;;;;;19.90;61.00;;;;;;1517507;73;229180;-71
2022/12/17 21:10:43;;;;;;;;;;;19.90;61.00;;;;;;1478842;79;865;-70
2022/12/17 21:15:04;;;;;;;;;;;19.90;61.00;;;;;;1485542;79;1669;-72
2022/12/17 21:17:06;;;;;;;;;;;19.90;61.00;;;;;;1479935;79;1938;-69
2022/12/17 21:19:08;;;;;;;;;;;19.90;61.00;;;;;;1494700;79;1274;-73
2022/12/17 21:21:12;;;;;;;;;;;19.90;61.00;;;;;;1503297;79;733;-71
2022/12/17 21:23:14;;;;;;;;;;;19.90;61.00;;;;;;1500958;79;1730;-71
2022/12/17 21:25:16;;;;;;;;;;;19.90;61.00;;;;;;1503632;78;653;-71
2022/12/17 21:27:19;;;;;;;;;;;19.90;61.00;;;;;;1495686;78;727;-70
2022/12/17 21:29:21;;;;;;;;;;;19.90;61.00;;;;;;1501531;78;1127;-71
2022/12/17 21:31:23;;;;;;;;;;;19.90;61.00;;;;;;1503796;79;780;-69
2022/12/17 21:33:25;;;;;;;;;;;20.00;61.00;;;;;;1502505;79;707;-71
2022/12/17 21:35:27;;;;;;;;;;;19.90;61.00;;;;;;1497357;79;1977;-70
2022/12/17 21:37:29;;;;;;;;;;;19.90;61.00;;;;;;1499058;79;1501;-71
2022/12/17 21:39:31;;;;;;;;;;;19.90;61.00;;;;;;1500616;77;1130;-68
2022/12/17 21:41:33;;;;;;;;;;;19.90;61.00;;;;;;1503199;79;721;-70
2022/12/17 21:43:35;;;;;;;;;;;19.90;61.00;;;;;;1506502;77;831;-71
2022/12/17 21:45:38;;;;;;;;;;;19.90;60.90;;;;;;1500333;79;913;-71
2022/12/17 21:47:40;;;;;;;;;;;19.80;60.90;;;;;;1502591;79;700;-70
2022/12/17 21:49:42;;;;;;;;;;;19.80;60.80;;;;;;1502026;78;1540;-71
2022/12/17 21:51:44;;;;;;;;;;;19.80;60.80;;;;;;1504931;79;814;-71
2022/12/17 21:53:45;;;;;;;;;;;19.90;61.00;;;;;;1510758;78;738;-72
2022/12/17 21:55:48;;;;;;;;;;;19.80;60.80;;;;;;1502796;79;1947;-71
2022/12/17 21:57:49;;;;;;;;;;;19.90;60.90;;;;;;1504435;77;711;-71
2022/12/17 21:59:51;;;;;;;;;;;19.90;60.90;;;;;;1503340;77;1084;-70
2022/12/17 22:01:55;;;;;;;;;;;19.80;60.80;;;;;;1503633;79;735;-70
2022/12/17 22:03:57;;;;;;;;;;;19.80;60.90;;;;;;1502192;79;1676;-71
2022/12/17 22:06:01;;;;;;;;;;;19.90;60.90;;;;;;1502228;79;761;-71
2022/12/17 22:08:03;;;;;;;;;;;19.90;60.90;;;;;;1495329;78;1714;-71
2022/12/17 22:10:05;;;;;;;;;;;19.90;60.90;;;;;;1503303;79;794;-73
2022/12/17 22:14:29;;;;;;;;;;;19.80;60.90;;;;;;1498679;79;1673;-70
2022/12/17 22:16:32;;;;;;;;;;;19.90;60.90;;;;;;1500554;79;1938;-73
2022/12/17 22:18:34;;;;;;;;;;;19.80;60.80;;;;;;1503984;77;1574;-69
2022/12/17 22:20:36;;;;;;;;;;;19.90;60.90;;;;;;1501283;79;625;-71
2022/12/17 22:22:38;;;;;;;;;;;19.80;60.80;;;;;;1504131;78;736;-68
2022/12/17 22:24:40;;;;;;;;;;;19.80;60.80;;;;;;1502892;79;753;-71
2022/12/17 22:26:42;;;;;;;;;;;19.80;60.80;;;;;;1502314;79;770;-71
2022/12/17 22:28:47;;;;;;;;;;;19.80;60.90;;;;;;1507593;77;1198;-70
2022/12/17 22:33:07;;;;;;;;;;;19.80;60.80;;;;;;1502687;79;1610;-73
2022/12/17 22:35:09;;;;;;;;;;;19.80;60.80;;;;;;1502565;79;742;-70
2022/12/17 22:37:11;;;;;;;;;;;19.80;60.90;;;;;;1501549;79;1949;-70
2022/12/17 22:39:13;;;;;;;;;;;19.80;60.70;;;;;;1498392;78;1139;-71
2022/12/17 22:43:28;;;;;;;;;;;19.80;60.80;;;;;;1501641;79;944;-69
2022/12/17 22:43:31;;;;;;;;;;;19.80;60.80;;;;;;1499745;77;1013;-71
2022/12/17 22:45:33;;;;;;;;;;;19.80;60.80;;;;;;1500159;79;821;-70
2022/12/17 22:47:34;;;;;;;;;;;19.80;60.80;;;;;;1505294;79;1515;-71
2022/12/17 22:49:36;;;;;;;;;;;19.80;60.80;;;;;;1503500;77;1166;-71
2022/12/17 22:51:39;;;;;;;;;;;19.80;60.80;;;;;;1502385;79;746;-70
2022/12/17 22:53:41;;;;;;;;;;;19.80;60.80;;;;;;1502271;79;767;-70
2022/12/17 22:55:43;;;;;;;;;;;19.80;60.70;;;;;;1503308;79;1953;-71
2022/12/17 22:57:45;;;;;;;;;;;19.80;60.80;;;;;;1506938;77;789;-72
2022/12/17 22:59:47;;;;;;;;;;;19.80;60.80;;;;;;1502133;78;1107;-70
2022/12/17 23:01:48;;;;;;;;;;;19.80;60.80;;;;;;1504493;79;1591;-71
2022/12/17 23:03:52;;;;;;;;;;;19.80;60.70;;;;;;1499214;79;795;-73
2022/12/17 23:05:55;;;;;;;;;;;19.80;60.70;;;;;;1501686;78;1940;-70
2022/12/17 23:07:57;;;;;;;;;;;19.80;60.70;;;;;;1501862;77;1731;-69
2022/12/17 23:09:59;;;;;;;;;;;19.80;60.70;;;;;;1503348;79;792;-71
2022/12/17 23:12:49;;;;;;;;;;;19.80;60.70;;;;;;1503171;77;801;-70
2022/12/17 23:14:05;;;;;;;;;;;19.70;60.80;;;;;;1495436;79;1698;-70
2022/12/17 23:16:07;;;;;;;;;;;19.70;60.70;;;;;;1500771;79;1910;-71
2022/12/17 23:18:09;;;;;;;;;;;19.70;60.70;;;;;;1487755;77;1153;-71
2022/12/17 23:20:11;;;;;;;;;;;19.80;60.70;;;;;;1503231;79;750;-70
2022/12/17 23:22:16;;;;;;;;;;;19.80;60.70;;;;;;1502283;79;757;-71
2022/12/17 23:24:18;;;;;;;;;;;19.70;60.70;;;;;;1502583;79;751;-70
2022/12/17 23:26:21;;;;;;;;;;;19.80;60.70;;;;;;1503219;79;772;-69
2022/12/17 23:28:22;;;;;;;;;;;19.70;60.70;;;;;;1501075;78;1564;-70
2022/12/17 23:30:24;;;;;;;;;;;19.80;60.70;;;;;;1502337;79;801;-71
2022/12/17 23:32:26;;;;;;;;;;;19.70;60.70;;;;;;1503022;79;724;-70
2022/12/17 23:34:28;;;;;;;;;;;19.80;60.70;;;;;;1503057;79;796;-71
2022/12/17 23:36:30;;;;;;;;;;;19.80;60.70;;;;;;1502581;79;1949;-72
2022/12/17 23:38:32;;;;;;;;;;;19.70;60.70;;;;;;1499642;78;1170;-71
2022/12/17 23:40:34;;;;;;;;;;;19.70;60.70;;;;;;1501850;79;728;-71
2022/12/17 23:42:35;;;;;;;;;;;19.70;60.70;;;;;;1502918;79;1541;-71
2022/12/17 23:44:37;;;;;;;;;;;19.70;60.70;;;;;;1502697;79;742;-71
2022/12/17 23:46:39;;;;;;;;;;;19.70;60.70;;;;;;1501466;79;786;-70
2022/12/17 23:48:41;;;;;;;;;;;19.80;60.70;;;;;;1503135;78;1152;-68
2022/12/17 23:50:43;;;;;;;;;;;19.80;60.60;;;;;;1501530;79;750;-71
2022/12/17 23:52:45;;;;;;;;;;;19.70;60.60;;;;;;1502941;79;758;-73
2022/12/17 23:54:47;;;;;;;;;;;19.70;60.70;;;;;;1501460;77;708;-72
2022/12/17 23:56:49;;;;;;;;;;;19.80;60.60;;;;;;1502829;77;1953;-71
2022/12/17 23:58:51;;;;;;;;;;;19.70;60.60;;;;;;1502530;78;1119;-71
